Historyczne dane pomiarowe

Dodano dane terminowe – wersja testowa.

Dane z okresu 1951-2019

Wersja bazy: 1.34 [2019-03-16, lista zmian], aktualizacja planowana na 2019-04-15

Dane meteo z obszaru Polski uzyskane na podstawie danych udostępnionych przez Instytut Meteorologii i Gospodarki Wodnej – Państwowy Instytut Badawczy.

 

Wybierz Datę:    

       

TemperaturaWilgotnośćWiatrCiśnienieOpadyŚniegCzas trwania zjawisk
 Stacja t tx tn tng RH VA  wxwx mslp ppp RRR   cm mm wxwxwxwxwxwxwx
1994-08-14 13.4 16.9 9.9 10.0-------- 13.7--- 0.0 5.8-------
1994-08-13 16.2 21.2 8.9 6.0-------- 6.3--- 0.0 1.6-------
1994-08-12 18.0 24.6 8.9 5.4-------- 0.0--- 0.0 9.0-------
1994-08-11 20.0 26.0 10.2 7.7-------- 0.0--- 0.0 12.7-------
1994-08-10 18.0 25.5 9.6 6.0-------- 0.0--- 0.0 10.4-------
1994-08-09 18.7 25.3 10.0 7.4-------- 0.0--- 0.0 8.0-------
1994-08-08 18.6 25.4 9.9 7.7-------- 0.0--- 0.0 10.8-------
1994-08-07 19.9 24.4 15.3 13.7-------- 0.0--- 0.0 8.7-------
1994-08-06 23.1 27.4 17.1 13.1-------- 0.0--- 0.0 10.1-------
1994-08-05 22.1 32.0 10.2 8.1-------- 0.0--- 0.0 12.6-------
1994-08-04 20.6 26.1 14.0 12.3-------- 0.0--- 0.0 11.2-------
1994-08-03 21.4 24.3 18.1 15.6-------- 0.0--- 0.0 1.6-------
1994-08-02 25.0 32.4 20.3 17.8-------- 0.0--- 0.0 9.9-------
1994-08-01 24.3 30.9 19.8 17.3-------- 0.0--- 0.0 6.1-------
1994-07-31 27.4 36.3 21.1 19.4-------- 10.5--- 0.0 8.5-------
1994-07-30 25.3 34.5 16.8 13.4-------- 0.0--- 0.0 7.1-------
1994-07-29 27.3 35.4 15.9 13.2-------- 0.0--- 0.0 12.1-------
1994-07-28 24.2 32.0 15.3 12.6-------- 0.0--- 0.0 13.5-------
1994-07-27 25.6 34.9 14.5 12.1-------- 0.0--- 0.0 10.4-------
1994-07-26 24.9 33.6 14.7 10.4-------- 0.0--- 0.0 13.8-------
1994-07-25 23.3 23.3 14.5 10.6-------- 0.0--- 0.0 14.8-------
1994-07-24 22.8 30.9 9.7 6.8-------- 0.0--- 0.0 15.0-------
1994-07-23 22.0 29.2 10.4 7.7-------- 0.0--- 0.0 14.8-------
1994-07-22 19.6 27.5 8.2 5.1-------- 0.0--- 0.0 14.7-------
1994-07-21 18.5 26.0 7.3 3.9-------- 0.0--- 0.0 15.0-------
1994-07-20 17.2 23.9 6.7 3.1-------- 0.0--- 0.0 15.5-------
1994-07-19 16.3 22.3 6.3 3.8-------- 0.0--- 0.0 13.7-------
1994-07-18 16.2 22.0 8.8 6.0-------- 0.0--- 0.0 9.5-------
1994-07-17 18.6 22.1 14.4 11.7-------- 0.0--- 0.0 11.8-------
1994-07-16 20.4 24.5 17.2 16.2-------- 0.0--- 0.0 7.9-------
1994-07-15 24.8 33.6 17.4 14.6-------- 12.3--- 0.0 12.0-------
1994-07-14 25.9 32.4 15.7 12.9-------- 0.0--- 0.0 12.1-------
1994-07-13 25.1 32.4 16.6 11.1-------- 0.0--- 0.0 14.5-------
1994-07-12 21.5 29.8 9.3 5.5-------- 0.0--- 0.0 14.4-------
1994-07-11 19.6 27.4 9.8 5.6-------- 0.0--- 0.0 15.2-------
1994-07-10 19.0 25.4 11.0 8.8-------- 0.0--- 0.0 15.0-------
1994-07-09 18.7 24.3 11.3 8.2-------- 0.0--- 0.0 12.1-------
1994-07-08 16.7 24.8 8.1 3.9-------- 0.0--- 0.0 8.9-------
1994-07-07 15.8 22.9 4.0 0.4-------- 0.0--- 0.0 15.2-------
1994-07-06 14.7 21.2 6.5 2.4-------- 0.0--- 0.0 12.4-------
1994-07-05 15.9 21.8 5.6 0.9-------- 0.0--- 0.0 14.3-------
1994-07-04 19.3 25.2 10.9 6.8-------- 0.0--- 0.0 15.6-------
1994-07-03 17.9 24.4 6.4 2.6-------- 0.0--- 0.0 15.7-------
1994-07-02 15.9 23.2 5.0 3.3-------- 0.0--- 0.0 15.6-------
1994-07-01 14.9 17.8 10.5 8.5-------- 0.0--- 0.0 14.6-------
1994-06-30 17.4 26.5 15.2 15.0-------- 0.0--- 0.0 13.1-------
1994-06-29 22.7 30.7 10.5 7.8-------- 5.0--- 0.0 13.5-------
1994-06-28 19.1 25.1 10.3 7.3-------- 0.0--- 0.0 14.6-------
1994-06-27 18.3 22.0 14.1 13.1-------- 0.0--- 0.0 9.4-------
1994-06-26 21.1 30.3 13.5 8.0-------- 0.0--- 0.0 14.2-------
1994-06-25 16.6 23.8 6.5 1.0-------- 0.0--- 0.0 15.7-------
1994-06-24 13.3 16.6 9.7 8.6-------- 0.0--- 0.0 13.0-------
1994-06-23 13.0 15.2 10.2 9.7-------- 0.0--- 0.0 9.7-------
1994-06-22 16.4 18.7 14.6 14.2-------- 0.5--- 0.0 1.4-------
1994-06-21 14.7 21.2 6.2 2.3-------- 1.8--- 0.0 12.7-------
1994-06-20 12.9 15.1 9.9 8.6-------- 0.0--- 0.0 7.9-------
1994-06-19 12.5 14.2 10.4 10.2-------- 6.1--- 0.0 0.0-------
1994-06-18 11.4 15.5 5.2 1.4-------- 3.8--- 0.0 5.7-------
1994-06-17 9.9 13.2 4.7 3.3-------- 2.6--- 0.0 10.4-------
1994-06-16 10.5 13.4 8.2 7.8-------- 0.9--- 0.0 8.2-------
327.6 ms

 

Źródłem pochodzenia danych jest Instytut Meteorologii i Gospodarki Wodnej – Państwowy Instytut Badawczy. Dane Instytutu Meteorologii i Gospodarki Wodnej – Państwowego Instytutu Badawczego zostały przetworzone.

Dane źródłowe można odnaleźć na stronie https://dane.imgw.pl